Time;durP1;ratioP1;P1;durP2;ratioP2;P2;SDS_P1;SDS_P2;PMS_P1;PMS_P2;Temp;Humidity;BMP_temperature;BMP_pressure;BME280_temperature;BME280_humidity;BME280_pressure;Samples;Min_cycle;Max_cycle;Signal;HPM_P1;HPM_P2
2021/06/17 00:01:52;;;;;;;8.80;6.97;;;24.60;59.40;;;;;;5231190;28;20760;-48
2021/06/17 00:04:25;;;;;;;11.18;7.75;;;24.60;59.40;;;;;;5251300;28;20052;-51
2021/06/17 00:06:58;;;;;;;9.88;7.70;;;24.60;59.40;;;;;;5248458;28;20052;-53
2021/06/17 00:09:30;;;;;;;8.70;7.40;;;24.60;59.40;;;;;;5250028;28;20051;-51
2021/06/17 00:12:05;;;;;;;11.07;7.25;;;24.60;59.40;;;;;;5228126;28;20064;-53
2021/06/17 00:14:37;;;;;;;12.25;7.63;;;24.60;59.40;;;;;;5247753;28;20053;-51
2021/06/17 00:17:10;;;;;;;9.27;7.13;;;24.60;59.40;;;;;;5245205;28;20052;-50
2021/06/17 00:19:46;;;;;;;8.80;7.38;;;24.60;59.40;;;;;;5247920;28;20051;-51
2021/06/17 00:22:18;;;;;;;9.07;6.40;;;24.50;59.30;;;;;;5248788;28;20056;-50
2021/06/17 00:24:51;;;;;;;9.00;6.90;;;24.60;59.40;;;;;;5250162;28;20063;-51
2021/06/17 00:27:26;;;;;;;9.48;7.15;;;24.60;59.40;;;;;;5215147;28;20063;-50
2021/06/17 00:29:59;;;;;;;8.40;6.85;;;24.50;59.40;;;;;;5248472;28;20044;-50
2021/06/17 00:32:31;;;;;;;8.10;7.20;;;24.50;59.50;;;;;;5228248;28;20044;-49
2021/06/17 00:35:05;;;;;;;9.00;7.22;;;24.50;59.50;;;;;;5244585;28;20412;-51
2021/06/17 00:37:38;;;;;;;7.78;6.97;;;24.50;59.60;;;;;;5249171;28;20055;-52
2021/06/17 00:40:14;;;;;;;11.50;6.85;;;24.50;59.60;;;;;;5226661;28;20048;-48
2021/06/17 00:42:49;;;;;;;11.20;7.10;;;24.50;59.60;;;;;;5249177;28;20052;-50
2021/06/17 00:45:25;;;;;;;9.98;7.18;;;24.50;59.60;;;;;;5251106;28;20056;-49
2021/06/17 00:47:58;;;;;;;8.07;6.53;;;24.50;59.60;;;;;;5239504;28;20067;-51
2021/06/17 00:50:35;;;;;;;11.63;6.88;;;24.50;59.60;;;;;;5249776;28;20478;-53
2021/06/17 00:53:12;;;;;;;9.77;6.47;;;24.50;59.50;;;;;;5250883;28;20049;-49
2021/06/17 00:55:46;;;;;;;8.57;6.82;;;24.50;59.50;;;;;;5248879;28;20051;-49
2021/06/17 00:58:19;;;;;;;8.57;6.38;;;24.50;59.50;;;;;;5238211;28;20044;-52
2021/06/17 01:00:52;;;;;;;9.38;6.97;;;24.50;59.60;;;;;;5249187;28;20049;-49
2021/06/17 01:03:25;;;;;;;10.38;6.55;;;24.50;59.60;;;;;;5249323;28;20047;-52
2021/06/17 01:05:57;;;;;;;11.27;6.33;;;24.40;59.60;;;;;;5233857;28;20056;-52
2021/06/17 01:09:07;;;;;;;8.15;6.68;;;24.40;59.60;;;;;;5235291;28;20051;-51
2021/06/17 01:11:54;;;;;;;10.95;6.55;;;24.50;59.60;;;;;;5253156;28;20047;-54
2021/06/17 01:15:09;;;;;;;7.18;6.25;;;24.50;59.60;;;;;;5249793;28;20044;-52
2021/06/17 01:17:55;;;;;;;6.85;6.07;;;24.40;59.50;;;;;;5245632;28;20044;-52
2021/06/17 01:20:49;;;;;;;8.65;6.22;;;24.40;59.50;;;;;;5237609;28;20052;-54
2021/06/17 01:24:17;;;;;;;9.13;6.13;;;24.40;59.50;;;;;;5236808;28;20055;-47
2021/06/17 01:27:17;;;;;;;6.60;6.00;;;24.40;59.40;;;;;;5142153;28;20573;-49
2021/06/17 01:29:54;;;;;;;10.00;6.68;;;24.40;59.50;;;;;;5251391;28;20413;-49
2021/06/17 01:32:27;;;;;;;6.43;5.35;;;24.40;59.50;;;;;;5252543;28;20057;-49
2021/06/17 01:35:02;;;;;;;8.68;6.25;;;24.40;59.40;;;;;;5252735;28;20044;-49
2021/06/17 01:37:36;;;;;;;6.43;5.78;;;24.40;59.40;;;;;;5247230;28;20071;-48
2021/06/17 01:40:09;;;;;;;7.53;6.07;;;24.40;59.30;;;;;;5246942;28;20551;-47
2021/06/17 01:42:43;;;;;;;;;;;24.40;59.30;;;;;;5217435;28;20055;-51
2021/06/17 01:45:17;;;;;;;6.95;5.90;;;24.30;59.20;;;;;;5223068;28;19920;-50
2021/06/17 01:47:52;;;;;;;7.43;5.75;;;24.40;59.30;;;;;;5229930;28;20060;-54
2021/06/17 01:50:27;;;;;;;6.85;5.82;;;24.40;59.30;;;;;;5247377;28;20051;-48
2021/06/17 01:53:00;;;;;;;9.38;5.82;;;24.40;59.30;;;;;;5252888;28;20052;-46
2021/06/17 01:55:36;;;;;;;8.82;5.95;;;24.40;59.30;;;;;;5250218;28;20053;-52
2021/06/17 01:58:12;;;;;;;8.25;6.32;;;24.40;59.30;;;;;;5248500;28;20063;-49
2021/06/17 02:00:47;;;;;;;9.02;5.78;;;24.40;59.30;;;;;;5247471;28;20056;-52
2021/06/17 02:03:22;;;;;;;7.70;5.57;;;24.40;59.30;;;;;;5249028;28;20052;-47
2021/06/17 02:05:55;;;;;;;5.97;5.35;;;24.30;59.30;;;;;;5249733;28;20060;-50
2021/06/17 02:08:28;;;;;;;9.20;6.10;;;24.40;59.30;;;;;;5253751;28;20052;-48
2021/06/17 02:11:03;;;;;;;8.63;5.80;;;24.30;59.20;;;;;;5249707;28;20052;-53
2021/06/17 02:13:36;;;;;;;9.13;5.47;;;24.30;59.10;;;;;;5253014;28;20052;-52
2021/06/17 02:16:10;;;;;;;8.00;5.60;;;24.30;59.10;;;;;;5252652;28;20059;-50
2021/06/17 02:18:45;;;;;;;9.95;6.32;;;24.30;59.10;;;;;;5251872;28;20046;-53
2021/06/17 02:21:19;;;;;;;14.82;5.93;;;24.30;59.10;;;;;;5247795;28;20412;-50
2021/06/17 02:23:55;;;;;;;6.80;5.53;;;24.30;59.00;;;;;;5245460;28;20059;-52
2021/06/17 02:26:28;;;;;;;10.52;5.90;;;24.30;59.00;;;;;;5247804;28;20056;-53
2021/06/17 02:29:02;;;;;;;6.93;5.47;;;24.30;59.10;;;;;;5254063;28;20061;-49
2021/06/17 02:31:38;;;;;;;7.60;5.72;;;24.30;59.00;;;;;;5230053;28;20489;-51
2021/06/17 02:34:13;;;;;;;8.10;5.53;;;24.30;59.10;;;;;;5246654;28;20044;-50
2021/06/17 02:36:47;;;;;;;8.15;5.70;;;24.30;59.10;;;;;;5223465;28;20060;-50
2021/06/17 02:39:23;;;;;;;7.07;5.15;;;24.30;59.10;;;;;;5243256;28;20051;-52
2021/06/17 02:41:58;;;;;;;6.20;5.38;;;24.30;59.10;;;;;;5226896;28;20068;-52
2021/06/17 02:44:32;;;;;;;7.00;5.25;;;24.30;59.20;;;;;;5237261;28;20290;-49
2021/06/17 02:47:05;;;;;;;;;;;24.30;59.40;;;;;;5246658;28;20544;-48
2021/06/17 02:49:39;;;;;;;7.05;5.70;;;24.20;59.60;;;;;;5250287;28;20304;-48
2021/06/17 02:52:12;;;;;;;9.40;5.47;;;24.30;59.70;;;;;;5249180;28;20063;-47
2021/06/17 02:54:46;;;;;;;9.18;5.43;;;24.30;59.90;;;;;;5248509;28;20512;-49
2021/06/17 02:57:38;;;;;;;6.13;5.47;;;24.30;59.90;;;;;;5226919;28;20044;-48
2021/06/17 03:00:20;;;;;;;10.32;5.80;;;24.30;60.00;;;;;;5248800;28;21043;-51
2021/06/17 03:02:59;;;;;;;8.55;5.55;;;24.30;60.10;;;;;;5248539;28;20057;-50
2021/06/17 03:05:47;;;;;;;6.68;5.18;;;24.30;60.10;;;;;;5249752;28;20063;-50
2021/06/17 03:08:39;;;;;;;5.82;5.03;;;24.30;60.20;;;;;;5245550;28;20061;-52
2021/06/17 03:11:13;;;;;;;8.50;5.10;;;24.30;60.20;;;;;;5247809;28;20055;-47
2021/06/17 03:13:47;;;;;;;;;;;24.30;60.20;;;;;;5245970;28;20497;-52
2021/06/17 03:16:24;;;;;;;6.63;5.60;;;24.30;60.30;;;;;;5247523;28;19924;-52
2021/06/17 03:18:59;;;;;;;5.70;5.15;;;24.30;60.40;;;;;;5247968;28;20520;-52
2021/06/17 03:21:39;;;;;;;6.15;5.38;;;24.40;60.50;;;;;;5248336;28;20636;-52
2021/06/17 03:24:13;;;;;;;9.02;5.38;;;24.30;60.50;;;;;;5248222;28;20054;-52
2021/06/17 03:26:49;;;;;;;6.30;5.20;;;24.30;60.50;;;;;;5222376;28;20040;-50
2021/06/17 03:29:25;;;;;;;6.45;4.85;;;24.40;60.60;;;;;;5248199;28;20052;-55
2021/06/17 03:31:59;;;;;;;8.60;5.68;;;24.40;60.70;;;;;;5249583;28;20051;-53
2021/06/17 03:34:32;;;;;;;5.13;4.43;;;24.40;60.70;;;;;;5249141;28;20052;-54
2021/06/17 03:37:06;;;;;;;;;;;24.40;60.70;;;;;;5250722;28;20054;-49
2021/06/17 03:39:40;;;;;;;10.27;5.45;;;24.30;60.70;;;;;;5240764;28;20494;-49
2021/06/17 03:42:15;;;;;;;8.57;5.70;;;24.40;60.80;;;;;;5230186;28;20048;-54
2021/06/17 03:44:50;;;;;;;7.80;5.22;;;24.40;60.90;;;;;;5230677;28;20052;-48
2021/06/17 03:47:26;;;;;;;6.65;5.03;;;24.40;60.90;;;;;;5229402;28;20475;-50
2021/06/17 03:49:59;;;;;;;6.78;5.25;;;24.40;61.00;;;;;;5245049;28;20071;-52
2021/06/17 03:52:32;;;;;;;6.47;5.18;;;24.30;60.90;;;;;;5248976;28;20310;-47
2021/06/17 03:55:06;;;;;;;5.70;5.15;;;24.40;61.00;;;;;;5247999;28;20052;-51
2021/06/17 03:57:40;;;;;;;5.07;4.57;;;24.40;61.10;;;;;;5244744;28;20044;-50
2021/06/17 04:00:13;;;;;;;5.50;4.65;;;24.40;61.10;;;;;;5245468;28;20558;-49
2021/06/17 04:02:47;;;;;;;6.13;5.00;;;24.40;61.10;;;;;;5245793;28;20044;-49
2021/06/17 04:05:20;;;;;;;6.68;5.20;;;24.40;61.20;;;;;;5226136;28;20044;-48
2021/06/17 04:07:59;;;;;;;9.90;5.25;;;24.40;61.20;;;;;;5246825;28;20051;-50
2021/06/17 04:10:32;;;;;;;5.18;4.65;;;24.40;61.20;;;;;;5245506;28;20653;-49
2021/06/17 04:13:07;;;;;;;8.05;4.80;;;24.40;61.20;;;;;;5245144;28;20051;-46
2021/06/17 04:15:42;;;;;;;5.78;4.78;;;24.40;61.20;;;;;;5244578;28;20052;-48
2021/06/17 04:18:16;;;;;;;7.95;4.80;;;24.40;61.30;;;;;;5223746;28;20771;-51
2021/06/17 04:20:49;;;;;;;7.07;4.43;;;24.40;61.30;;;;;;5220089;28;20047;-48
2021/06/17 04:23:24;;;;;;;6.13;5.30;;;24.40;61.30;;;;;;5239323;28;20408;-53
2021/06/17 04:25:57;;;;;;;5.97;5.30;;;24.40;61.40;;;;;;5243272;28;20056;-51
2021/06/17 04:28:33;;;;;;;8.80;5.07;;;24.40;61.40;;;;;;5203035;28;20044;-51
2021/06/17 04:31:06;;;;;;;7.97;4.60;;;24.40;61.40;;;;;;5243026;28;20427;-55
2021/06/17 04:33:40;;;;;;;5.93;5.32;;;24.40;62.10;;;;;;5246544;28;20056;-52
2021/06/17 04:36:13;;;;;;;7.30;5.43;;;24.40;61.40;;;;;;5248116;28;20052;-51
2021/06/17 04:38:50;;;;;;;5.82;5.03;;;24.40;61.40;;;;;;5210608;28;20056;-50
2021/06/17 04:41:22;;;;;;;5.78;4.85;;;24.40;61.50;;;;;;5229804;28;20060;-52
2021/06/17 04:43:56;;;;;;;6.35;4.65;;;24.40;61.50;;;;;;5244528;28;20550;-52
2021/06/17 04:46:30;;;;;;;6.25;4.75;;;24.40;61.50;;;;;;5222457;28;20501;-54
2021/06/17 04:49:04;;;;;;;5.90;5.00;;;24.40;61.60;;;;;;5239793;28;20079;-52
2021/06/17 04:51:37;;;;;;;5.32;4.70;;;24.40;61.60;;;;;;5246892;28;20051;-53
2021/06/17 04:54:20;;;;;;;5.57;4.80;;;24.40;61.70;;;;;;5228751;28;20052;-49
2021/06/17 04:56:52;;;;;;;6.45;4.95;;;24.40;61.70;;;;;;5243479;28;20055;-52
2021/06/17 04:59:25;;;;;;;7.30;4.60;;;24.40;61.70;;;;;;5241085;28;20056;-51
2021/06/17 05:01:58;;;;;;;6.07;4.50;;;24.40;61.80;;;;;;5245355;28;20059;-52
2021/06/17 05:04:31;;;;;;;9.70;4.78;;;24.40;61.80;;;;;;5243385;28;20575;-50
2021/06/17 05:12:28;;;;;;;5.72;4.72;;;24.40;61.80;;;;;;5246478;28;20071;-56
2021/06/17 05:15:02;;;;;;;4.97;4.32;;;24.40;61.80;;;;;;5245417;28;20058;-55
2021/06/17 05:17:34;;;;;;;8.88;4.47;;;24.40;61.80;;;;;;5246303;28;20048;-54
2021/06/17 05:20:08;;;;;;;8.87;4.47;;;24.40;61.90;;;;;;5247554;28;20051;-53
2021/06/17 05:22:42;;;;;;;7.18;4.50;;;24.40;61.90;;;;;;5243768;28;20321;-49
2021/06/17 05:25:15;;;;;;;10.88;4.50;;;24.40;62.00;;;;;;5238892;28;20097;-56
2021/06/17 05:27:48;;;;;;;10.23;4.90;;;24.40;62.00;;;;;;5247526;28;20060;-48
2021/06/17 05:30:21;;;;;;;6.10;4.80;;;24.40;62.00;;;;;;5243794;28;20078;-53
2021/06/17 05:32:53;;;;;;;6.10;4.20;;;24.40;62.10;;;;;;5249781;28;20052;-48
2021/06/17 05:35:26;;;;;;;7.45;5.00;;;24.40;62.00;;;;;;5248797;28;20052;-55
2021/06/17 05:37:58;;;;;;;7.25;4.65;;;24.40;62.10;;;;;;5246225;28;20048;-53
2021/06/17 05:40:32;;;;;;;7.55;4.57;;;24.40;62.10;;;;;;5248354;28;20423;-52
2021/06/17 05:43:05;;;;;;;6.28;4.35;;;24.40;62.10;;;;;;5247969;28;20051;-50
2021/06/17 05:45:38;;;;;;;11.93;4.77;;;24.40;62.10;;;;;;5247085;28;20067;-54
2021/06/17 05:48:11;;;;;;;9.38;4.95;;;24.40;62.40;;;;;;5242372;28;20297;-53
2021/06/17 05:50:44;;;;;;;16.27;6.60;;;24.40;62.50;;;;;;5245050;28;20050;-55
2021/06/17 05:53:16;;;;;;;10.23;5.17;;;24.40;62.80;;;;;;5226262;28;20048;-52
2021/06/17 05:55:49;;;;;;;14.57;5.90;;;24.40;63.00;;;;;;5244110;28;20048;-56
2021/06/17 05:58:22;;;;;;;11.10;4.83;;;24.40;63.20;;;;;;5243982;28;20052;-52
2021/06/17 06:00:54;;;;;;;10.40;6.10;;;24.40;63.40;;;;;;5243757;28;20060;-56
2021/06/17 06:03:27;;;;;;;12.35;5.53;;;24.40;63.60;;;;;;5245382;28;20048;-57
2021/06/17 06:05:59;;;;;;;15.20;5.25;;;24.40;63.70;;;;;;5250915;28;20070;-50
2021/06/17 06:08:32;;;;;;;7.20;5.77;;;24.40;63.70;;;;;;5245882;28;20889;-48
2021/06/17 06:11:04;;;;;;;9.98;5.82;;;24.40;63.80;;;;;;5225723;28;20313;-56
2021/06/17 06:13:37;;;;;;;7.32;5.22;;;24.40;63.90;;;;;;5242440;28;20051;-56
2021/06/17 06:16:09;;;;;;;7.30;5.10;;;24.40;63.80;;;;;;5240189;28;20447;-55
2021/06/17 06:18:42;;;;;;;15.60;5.40;;;24.40;63.80;;;;;;5246911;28;20055;-48
2021/06/17 06:21:14;;;;;;;13.25;5.55;;;24.40;63.80;;;;;;5243532;28;20055;-56
2021/06/17 06:23:48;;;;;;;9.17;5.80;;;24.40;63.70;;;;;;5206344;28;20465;-52
2021/06/17 06:26:20;;;;;;;7.60;5.15;;;24.40;63.70;;;;;;5227242;28;20151;-51
2021/06/17 06:28:53;;;;;;;8.87;5.60;;;24.40;63.60;;;;;;5238959;28;20445;-52
2021/06/17 06:31:26;;;;;;;8.80;5.13;;;24.50;63.50;;;;;;5248113;28;20576;-51
2021/06/17 06:33:58;;;;;;;6.88;5.28;;;24.40;63.30;;;;;;5247787;28;20306;-46
2021/06/17 06:36:31;;;;;;;11.98;5.90;;;24.50;63.20;;;;;;5235381;28;20051;-51
2021/06/17 06:39:04;;;;;;;7.32;5.20;;;24.40;63.10;;;;;;5211409;28;20044;-49
2021/06/17 06:41:37;;;;;;;6.80;5.33;;;24.50;63.10;;;;;;5245856;28;20055;-48
2021/06/17 06:44:10;;;;;;;11.95;6.45;;;24.50;63.30;;;;;;5246898;28;20302;-48
2021/06/17 06:46:43;;;;;;;7.38;5.15;;;24.50;63.30;;;;;;5247111;28;20085;-47
2021/06/17 06:49:16;;;;;;;6.53;5.05;;;24.50;63.40;;;;;;5242181;28;20055;-47
2021/06/17 06:51:48;;;;;;;6.50;4.97;;;24.50;63.40;;;;;;5246408;28;20044;-49
2021/06/17 06:54:21;;;;;;;5.85;4.80;;;24.50;63.20;;;;;;5207108;28;20671;-49
2021/06/17 06:56:54;;;;;;;5.77;4.83;;;24.50;62.90;;;;;;5250208;28;20488;-49
2021/06/17 06:59:26;;;;;;;10.98;5.57;;;24.50;62.60;;;;;;5247883;28;21417;-50
2021/06/17 07:01:59;;;;;;;6.63;5.43;;;24.50;62.10;;;;;;5211964;28;20059;-49
2021/06/17 07:04:33;;;;;;;7.67;5.63;;;24.50;62.10;;;;;;5247961;28;20040;-51
2021/06/17 07:07:06;;;;;;;9.00;5.32;;;24.50;62.10;;;;;;5251348;28;20040;-53
2021/06/17 07:09:38;;;;;;;8.98;6.45;;;24.50;62.10;;;;;;5250427;28;20243;-55
2021/06/17 07:12:11;;;;;;;8.40;5.60;;;24.50;61.90;;;;;;5252661;28;20542;-49
2021/06/17 07:14:48;;;;;;;9.43;5.80;;;24.50;61.90;;;;;;5247474;28;20063;-50
2021/06/17 07:17:20;;;;;;;7.35;5.35;;;24.50;61.80;;;;;;5252148;28;20059;-53
2021/06/17 07:19:55;;;;;;;11.10;5.80;;;24.50;61.80;;;;;;5243849;28;20508;-47
2021/06/17 07:22:28;;;;;;;11.00;5.43;;;24.50;61.80;;;;;;5251756;28;20497;-51
2021/06/17 07:25:01;;;;;;;7.43;5.70;;;24.50;61.70;;;;;;5246111;28;20047;-48
2021/06/17 07:27:34;;;;;;;5.68;5.07;;;24.50;61.70;;;;;;5250160;28;20048;-48
2021/06/17 07:30:09;;;;;;;9.57;5.80;;;24.50;61.70;;;;;;5247461;28;20533;-51
2021/06/17 07:32:44;;;;;;;7.85;5.60;;;24.50;61.80;;;;;;5227771;28;20411;-49
2021/06/17 07:35:17;;;;;;;7.25;5.43;;;24.60;61.80;;;;;;5230841;28;20052;-50
2021/06/17 07:37:50;;;;;;;7.55;6.18;;;24.60;61.80;;;;;;5247544;28;20048;-49
2021/06/17 07:40:23;;;;;;;6.60;5.85;;;24.60;61.90;;;;;;5245489;28;20052;-50
2021/06/17 07:42:55;;;;;;;11.93;5.87;;;24.60;61.90;;;;;;5248121;28;20063;-49
2021/06/17 07:45:31;;;;;;;8.80;6.60;;;24.60;61.70;;;;;;5246667;28;20509;-51
2021/06/17 07:48:09;;;;;;;9.77;6.07;;;24.60;61.60;;;;;;5215185;28;20436;-50
2021/06/17 07:50:42;;;;;;;8.57;6.00;;;24.60;61.60;;;;;;5244158;28;20047;-50
2021/06/17 07:53:15;;;;;;;7.40;5.50;;;24.60;61.50;;;;;;5246448;28;20052;-47
2021/06/17 07:55:47;;;;;;;11.13;6.22;;;24.60;61.40;;;;;;5234492;28;20044;-50
2021/06/17 07:58:20;;;;;;;9.10;5.78;;;24.60;61.20;;;;;;5245418;28;20048;-49
2021/06/17 08:00:53;;;;;;;16.83;6.47;;;24.60;61.10;;;;;;5248460;28;20048;-48
2021/06/17 08:03:27;;;;;;;7.22;5.97;;;24.60;61.10;;;;;;5216560;28;20056;-51
2021/06/17 08:06:00;;;;;;;7.60;5.78;;;24.60;61.10;;;;;;5246996;28;20614;-49
2021/06/17 08:08:32;;;;;;;9.73;6.10;;;24.60;61.10;;;;;;5247540;28;20063;-51
2021/06/17 08:11:05;;;;;;;10.60;6.15;;;24.70;61.20;;;;;;5240597;28;20048;-55
2021/06/17 08:13:56;;;;;;;9.40;6.53;;;24.70;61.20;;;;;;5246973;28;20070;-49
2021/06/17 08:16:28;;;;;;;6.93;5.87;;;24.70;60.60;;;;;;5254063;28;20055;-48
2021/06/17 08:19:01;;;;;;;7.45;6.43;;;24.70;60.50;;;;;;5231488;28;20048;-55
2021/06/17 08:21:34;;;;;;;7.70;6.22;;;24.70;60.50;;;;;;5251553;28;20060;-48
2021/06/17 08:24:07;;;;;;;9.32;6.10;;;24.70;60.50;;;;;;5251567;28;20064;-49
2021/06/17 08:26:39;;;;;;;7.80;6.00;;;24.70;60.60;;;;;;5251415;28;20547;-51
2021/06/17 08:29:12;;;;;;;6.78;6.07;;;24.70;60.80;;;;;;5248524;28;20056;-47
2021/06/17 08:31:45;;;;;;;7.78;5.93;;;24.70;60.90;;;;;;5249799;28;20063;-46
2021/06/17 08:34:18;;;;;;;14.23;6.80;;;24.70;60.90;;;;;;5243625;28;20059;-46
2021/06/17 08:36:51;;;;;;;7.97;6.10;;;24.70;60.80;;;;;;5242938;28;20060;-48
2021/06/17 08:39:25;;;;;;;8.85;6.85;;;24.70;61.00;;;;;;5245386;28;20306;-48
2021/06/17 08:41:57;;;;;;;;;;;24.70;61.00;;;;;;5245649;28;20041;-52
2021/06/17 08:44:30;;;;;;;8.23;6.05;;;24.70;61.10;;;;;;5245903;28;19925;-45
2021/06/17 08:47:03;;;;;;;10.20;5.85;;;24.70;61.10;;;;;;5229343;28;20106;-48
2021/06/17 08:49:36;;;;;;;7.32;5.90;;;24.70;61.20;;;;;;5241598;28;20051;-49
2021/06/17 08:52:11;;;;;;;6.40;5.80;;;24.70;61.30;;;;;;5243871;28;20603;-47
2021/06/17 08:54:44;;;;;;;6.95;5.68;;;24.70;61.40;;;;;;5245010;28;20117;-50
2021/06/17 08:57:17;;;;;;;7.80;7.00;;;24.80;61.40;;;;;;5241635;28;20048;-48
2021/06/17 08:59:49;;;;;;;7.20;6.50;;;24.80;61.50;;;;;;5247080;28;20044;-55
2021/06/17 09:02:32;;;;;;;7.50;5.85;;;24.80;61.40;;;;;;5247474;28;20067;-49
2021/06/17 09:05:18;;;;;;;7.72;6.00;;;24.80;60.90;;;;;;5248776;28;20053;-49
2021/06/17 09:07:51;;;;;;;10.48;6.22;;;24.90;60.60;;;;;;5249943;28;20533;-52
2021/06/17 09:10:24;;;;;;;10.45;6.03;;;24.90;60.50;;;;;;5247436;28;20447;-50
2021/06/17 09:12:59;;;;;;;7.85;5.97;;;24.90;60.40;;;;;;5246365;28;20064;-50
2021/06/17 09:15:41;;;;;;;8.02;6.57;;;24.90;60.10;;;;;;5248907;28;20048;-51
2021/06/17 09:18:25;;;;;;;10.10;5.85;;;24.90;60.10;;;;;;5229385;28;20394;-48
2021/06/17 09:21:06;;;;;;;8.30;5.72;;;25.00;60.30;;;;;;5245048;28;20055;-53
2021/06/17 09:23:41;;;;;;;7.80;5.72;;;25.00;59.80;;;;;;5229904;28;20048;-51
2021/06/17 09:26:23;;;;;;;8.27;5.90;;;25.00;60.00;;;;;;5250049;28;20056;-52
2021/06/17 09:29:03;;;;;;;6.93;6.00;;;25.00;59.90;;;;;;5250118;28;20049;-47
2021/06/17 09:31:40;;;;;;;7.70;6.40;;;25.00;60.50;;;;;;5252294;28;20067;-49
2021/06/17 09:34:14;;;;;;;9.32;6.00;;;25.00;59.90;;;;;;5251280;28;20052;-46
2021/06/17 09:36:47;;;;;;;6.55;5.88;;;25.00;59.80;;;;;;5249281;28;20383;-52
2021/06/17 09:39:21;;;;;;;8.88;6.00;;;25.00;59.60;;;;;;5247293;28;20048;-47
2021/06/17 09:41:54;;;;;;;8.00;6.00;;;25.10;59.70;;;;;;5251111;28;20071;-47
2021/06/17 09:44:40;;;;;;;9.18;6.63;;;25.10;59.70;;;;;;5250541;28;20063;-48
2021/06/17 09:47:18;;;;;;;8.30;5.40;;;25.10;59.80;;;;;;5254956;28;20055;-50
2021/06/17 09:49:52;;;;;;;8.15;6.07;;;25.10;59.90;;;;;;5251930;28;20075;-47
2021/06/17 09:52:37;;;;;;;8.30;6.38;;;25.10;60.10;;;;;;5251443;28;20051;-50
2021/06/17 09:55:10;;;;;;;7.53;6.47;;;25.10;60.00;;;;;;5252414;28;20055;-51
2021/06/17 09:57:43;;;;;;;8.35;6.00;;;25.10;59.90;;;;;;5254799;28;20604;-47
2021/06/17 10:00:16;;;;;;;6.95;5.97;;;25.10;60.60;;;;;;5231948;28;20053;-50
2021/06/17 10:02:49;;;;;;;8.32;6.05;;;25.20;59.90;;;;;;5249524;28;20062;-48
2021/06/17 10:05:22;;;;;;;7.07;6.00;;;25.20;59.90;;;;;;5252827;28;20059;-48
2021/06/17 10:07:55;;;;;;;7.25;6.30;;;25.20;59.80;;;;;;5220410;28;20054;-52
2021/06/17 10:10:30;;;;;;;7.75;6.57;;;25.20;59.60;;;;;;5252005;28;20048;-49
2021/06/17 10:13:04;;;;;;;8.35;6.10;;;25.20;59.30;;;;;;5253985;28;20528;-46
2021/06/17 10:15:37;;;;;;;9.43;5.68;;;25.30;59.20;;;;;;5248596;28;20045;-48
2021/06/17 10:18:11;;;;;;;7.03;5.88;;;25.30;59.10;;;;;;5247314;28;20048;-50
2021/06/17 10:20:44;;;;;;;7.03;5.88;;;25.40;59.10;;;;;;5240810;28;20066;-46
2021/06/17 10:23:19;;;;;;;8.43;6.30;;;25.30;59.50;;;;;;5229122;28;20519;-54
2021/06/17 10:25:52;;;;;;;9.35;5.38;;;25.30;58.90;;;;;;5242253;28;20043;-47
2021/06/17 10:28:43;;;;;;;9.20;6.15;;;25.40;58.90;;;;;;5242703;28;20503;-51
2021/06/17 10:31:39;;;;;;;6.40;5.28;;;25.40;58.00;;;;;;5244156;28;20072;-47
2021/06/17 10:34:24;;;;;;;8.45;6.20;;;25.40;57.20;;;;;;5247508;28;20048;-48
2021/06/17 10:37:25;;;;;;;9.82;6.03;;;25.50;57.40;;;;;;5242993;28;20044;-53
2021/06/17 10:40:10;;;;;;;9.57;6.15;;;25.50;57.40;;;;;;5243681;28;20056;-46
2021/06/17 10:42:47;;;;;;;9.68;6.15;;;25.50;57.80;;;;;;5241134;28;20064;-49
2021/06/17 10:45:40;;;;;;;7.25;6.00;;;25.50;57.90;;;;;;5244147;28;20055;-51
2021/06/17 10:48:22;;;;;;;9.63;5.80;;;25.50;57.90;;;;;;5245998;28;20060;-51
2021/06/17 10:51:10;;;;;;;7.55;5.80;;;25.50;58.00;;;;;;5250836;28;20044;-47
2021/06/17 10:53:49;;;;;;;8.02;5.40;;;25.50;58.10;;;;;;5249726;28;20043;-48
2021/06/17 10:56:43;;;;;;;9.60;5.18;;;25.50;58.30;;;;;;5230483;28;20549;-54
2021/06/17 10:59:30;;;;;;;9.70;5.50;;;25.50;58.30;;;;;;5259598;28;20079;-47
2021/06/17 11:02:09;;;;;;;12.38;6.32;;;25.50;58.40;;;;;;5252432;28;20063;-48
2021/06/17 11:04:44;;;;;;;7.25;5.80;;;25.50;58.50;;;;;;5248081;28;20048;-46
2021/06/17 11:07:17;;;;;;;6.45;5.63;;;25.40;58.50;;;;;;5250054;28;20406;-48
2021/06/17 11:09:58;;;;;;;6.82;5.60;;;25.40;58.60;;;;;;5254780;28;20056;-49
2021/06/17 11:12:30;;;;;;;6.95;5.82;;;25.40;58.70;;;;;;5242378;28;20056;-49
2021/06/17 11:15:05;;;;;;;9.55;5.85;;;25.40;58.80;;;;;;5254054;28;20047;-54
2021/06/17 11:17:40;;;;;;;6.13;5.20;;;25.40;58.80;;;;;;5250115;28;20051;-51
2021/06/17 11:20:22;;;;;;;6.70;5.15;;;25.40;58.80;;;;;;5206327;28;20092;-49
2021/06/17 11:22:59;;;;;;;10.05;5.65;;;25.40;58.90;;;;;;5236249;28;20516;-52
2021/06/17 11:25:35;;;;;;;5.78;5.20;;;25.40;58.90;;;;;;5245155;28;20413;-52
2021/06/17 11:28:11;;;;;;;5.53;4.85;;;25.40;58.90;;;;;;5247559;28;20262;-48
2021/06/17 11:30:45;;;;;;;7.22;5.57;;;25.40;59.00;;;;;;5242685;28;20409;-49
2021/06/17 11:33:24;;;;;;;6.22;5.38;;;25.40;59.00;;;;;;5247674;28;20049;-53
2021/06/17 11:36:00;;;;;;;5.55;5.00;;;25.40;59.00;;;;;;5242465;28;20048;-52
2021/06/17 11:38:35;;;;;;;7.55;5.50;;;25.40;59.10;;;;;;5241938;28;20055;-49
2021/06/17 11:41:21;;;;;;;6.35;5.55;;;25.40;59.10;;;;;;5244290;28;20048;-50
2021/06/17 11:44:01;;;;;;;6.32;4.88;;;25.40;59.10;;;;;;5242164;28;20056;-48
2021/06/17 11:46:38;;;;;;;5.55;5.00;;;25.40;59.20;;;;;;5243718;28;20055;-46
2021/06/17 11:49:33;;;;;;;7.43;5.38;;;25.40;59.20;;;;;;5239519;28;20047;-52
2021/06/17 11:52:15;;;;;;;7.95;5.38;;;25.40;59.20;;;;;;5214966;28;20048;-50
2021/06/17 11:54:50;;;;;;;5.78;5.15;;;25.40;59.30;;;;;;5215537;28;20048;-48
2021/06/17 11:57:28;;;;;;;7.95;5.55;;;25.40;59.40;;;;;;5236215;28;20056;-46
2021/06/17 12:00:02;;;;;;;6.43;4.95;;;25.40;59.40;;;;;;5241820;28;20047;-52
2021/06/17 12:02:38;;;;;;;6.80;5.40;;;25.40;59.40;;;;;;5243497;28;20052;-47
2021/06/17 12:05:12;;;;;;;5.40;4.85;;;25.40;59.40;;;;;;5238920;28;20551;-46
2021/06/17 12:07:49;;;;;;;9.27;5.28;;;25.40;59.50;;;;;;5224169;28;20060;-49
2021/06/17 12:10:27;;;;;;;13.60;5.60;;;25.40;59.40;;;;;;5248254;28;20047;-53
2021/06/17 12:13:03;;;;;;;15.32;5.68;;;25.50;59.50;;;;;;5252806;28;20056;-51
2021/06/17 12:15:37;;;;;;;8.55;5.20;;;25.50;59.50;;;;;;5243971;28;20056;-46
2021/06/17 12:18:17;;;;;;;8.45;5.55;;;25.50;59.60;;;;;;5252257;28;20071;-52
2021/06/17 12:20:50;;;;;;;10.05;5.07;;;25.50;59.70;;;;;;5236548;28;20048;-52
2021/06/17 12:23:28;;;;;;;8.07;5.45;;;25.50;59.70;;;;;;5217122;28;20059;-52
2021/06/17 12:26:07;;;;;;;14.95;5.78;;;25.60;59.70;;;;;;5216254;28;20052;-54
2021/06/17 12:29:12;;;;;;;9.73;5.30;;;25.60;59.70;;;;;;5214175;28;20040;-53
2021/06/17 12:31:54;;;;;;;7.43;5.03;;;25.70;59.60;;;;;;5204557;28;20056;-52
2021/06/17 12:34:36;;;;;;;13.05;5.38;;;25.70;59.40;;;;;;5213438;28;20040;-53
2021/06/17 12:37:10;;;;;;;12.65;4.95;;;25.80;59.30;;;;;;5201350;28;20044;-52
2021/06/17 12:39:56;;;;;;;11.32;5.07;;;25.90;59.20;;;;;;5199045;28;20043;-51
2021/06/17 12:42:28;;;;;;;9.65;5.45;;;26.00;59.20;;;;;;5217840;28;20398;-53
2021/06/17 12:45:15;;;;;;;23.30;7.57;;;26.00;59.00;;;;;;5219900;28;20056;-58
2021/06/17 12:47:48;;;;;;;10.52;5.28;;;26.10;58.90;;;;;;5195724;28;20095;-53
2021/06/17 12:53:15;;;;;;;7.35;5.43;;;26.30;58.70;;;;;;5212054;28;20650;-56
2021/06/17 12:55:54;;;;;;;7.18;4.85;;;26.40;58.80;;;;;;5216917;28;20043;-57
2021/06/17 12:58:30;;;;;;;12.13;5.25;;;26.40;58.50;;;;;;5210569;28;20379;-57
2021/06/17 13:01:03;;;;;;;7.97;5.10;;;26.50;58.40;;;;;;5203494;28;20648;-55
2021/06/17 13:03:36;;;;;;;;;;;26.50;58.30;;;;;;5204224;28;20561;-51
2021/06/17 13:06:09;;;;;;;11.05;5.43;;;26.50;58.20;;;;;;5209344;28;19935;-54
2021/06/17 13:08:48;;;;;;;;;;;26.60;58.30;;;;;;5202841;28;20052;-55
2021/06/17 13:11:32;;;;;;;9.15;5.00;;;26.60;58.20;;;;;;5219697;28;19928;-57
2021/06/17 13:14:06;;;;;;;8.88;5.57;;;26.70;58.00;;;;;;5205833;28;20575;-52
2021/06/17 13:16:38;;;;;;;7.32;5.05;;;26.80;58.10;;;;;;5204341;28;20736;-54
2021/06/17 13:19:11;;;;;;;15.40;6.32;;;26.70;57.90;;;;;;5210483;28;20406;-55
2021/06/17 13:22:01;;;;;;;10.63;5.03;;;26.70;57.80;;;;;;5202490;28;20052;-54
2021/06/17 13:24:41;;;;;;;6.47;4.80;;;26.80;57.60;;;;;;5211592;28;20527;-53
2021/06/17 13:27:16;;;;;;;6.95;4.60;;;26.80;57.50;;;;;;5186458;28;20052;-55
2021/06/17 13:30:02;;;;;;;10.85;5.28;;;26.80;57.40;;;;;;5178300;28;20041;-57
2021/06/17 13:32:35;;;;;;;5.72;4.57;;;26.80;57.20;;;;;;5196389;28;20891;-58
2021/06/17 13:35:10;;;;;;;8.75;5.10;;;26.80;57.20;;;;;;5197967;28;20044;-53
2021/06/17 13:37:42;;;;;;;11.02;4.72;;;26.80;57.00;;;;;;5203846;28;20052;-59
2021/06/17 13:40:15;;;;;;;7.07;4.90;;;26.90;57.10;;;;;;5191742;28;20604;-52
2021/06/17 13:43:00;;;;;;;6.90;4.60;;;26.90;56.90;;;;;;5196168;28;20511;-52